createdAt,value
2018-06-16T00:02:03.313Z,7.47
2018-06-16T00:04:31.523Z,7.70
2018-06-16T00:06:59.562Z,8.40
2018-06-16T00:09:27.763Z,7.28
2018-06-16T00:11:55.991Z,7.65
2018-06-16T00:14:24.379Z,8.05
2018-06-16T00:16:52.595Z,7.80
2018-06-16T00:19:20.828Z,7.78
2018-06-16T00:21:49.146Z,8.05
2018-06-16T00:24:17.354Z,7.60
2018-06-16T00:26:45.294Z,7.85
2018-06-16T00:29:13.511Z,7.80
2018-06-16T00:31:41.475Z,8.20
2018-06-16T00:34:09.446Z,9.08
2018-06-16T00:36:37.649Z,8.33
2018-06-16T00:39:06.915Z,8.65
2018-06-16T00:41:35.183Z,8.20
2018-06-16T00:44:03.380Z,8.25
2018-06-16T00:46:31.679Z,8.93
2018-06-16T00:48:59.718Z,8.55
2018-06-16T00:51:27.921Z,8.00
2018-06-16T00:53:56.154Z,7.83
2018-06-16T00:56:24.483Z,8.30
2018-06-16T00:58:52.691Z,7.83
2018-06-16T01:01:20.687Z,8.08
2018-06-16T01:03:48.988Z,7.53
2018-06-16T01:06:17.184Z,8.38
2018-06-16T01:08:45.447Z,8.70
2018-06-16T01:11:13.722Z,8.05
2018-06-16T01:13:41.915Z,8.25
2018-06-16T01:16:10.219Z,7.97
2018-06-16T01:18:38.389Z,7.90
2018-06-16T01:21:07.019Z,8.38
2018-06-16T01:23:35.239Z,7.78
2018-06-16T01:26:03.451Z,8.60
2018-06-16T01:28:31.720Z,8.20
2018-06-16T01:30:59.955Z,8.08
2018-06-16T01:33:28.164Z,8.35
2018-06-16T01:35:56.353Z,8.53
2018-06-16T01:38:24.583Z,8.33
2018-06-16T01:40:52.808Z,8.30
2018-06-16T01:43:21.007Z,8.70
2018-06-16T01:45:49.232Z,8.80
2018-06-16T01:48:17.439Z,8.20
2018-06-16T01:50:45.645Z,8.30
2018-06-16T01:53:13.855Z,8.97
2018-06-16T01:55:42.230Z,8.93
2018-06-16T01:58:10.165Z,8.47
2018-06-16T02:00:38.371Z,8.87
2018-06-16T02:03:06.576Z,8.90
2018-06-16T02:05:34.918Z,8.77
2018-06-16T02:08:03.127Z,9.03
2018-06-16T02:10:31.110Z,8.98
2018-06-16T02:12:59.407Z,8.70
2018-06-16T02:15:27.615Z,9.53
2018-06-16T02:17:55.811Z,9.15
2018-06-16T02:20:24.015Z,9.20
2018-06-16T02:22:52.239Z,8.80
2018-06-16T02:25:20.435Z,9.07
2018-06-16T02:27:48.635Z,8.75
2018-06-16T02:30:16.841Z,8.60
2018-06-16T02:32:44.822Z,8.38
2018-06-16T02:35:13.071Z,8.00
2018-06-16T02:37:41.295Z,9.80
2018-06-16T02:40:09.503Z,8.70
2018-06-16T02:42:37.692Z,8.83
2018-06-16T02:45:05.899Z,9.40
2018-06-16T02:47:34.111Z,9.27
2018-06-16T02:50:02.295Z,8.63
2018-06-16T02:52:30.512Z,9.33
2018-06-16T02:54:58.724Z,9.07
2018-06-16T02:57:26.909Z,9.10
2018-06-16T02:59:54.848Z,8.47
2018-06-16T03:02:23.067Z,8.10
2018-06-16T03:04:51.015Z,9.73
2018-06-16T03:07:19.331Z,9.07
2018-06-16T03:09:47.559Z,8.97
2018-06-16T03:12:15.750Z,8.90
2018-06-16T03:14:43.993Z,8.87
2018-06-16T03:17:12.196Z,8.80
2018-06-16T03:19:40.385Z,9.17
2018-06-16T03:22:08.703Z,8.30
2018-06-16T03:24:36.899Z,9.60
2018-06-16T03:27:05.122Z,8.90
2018-06-16T03:29:33.328Z,8.00
2018-06-16T03:32:01.520Z,8.97
2018-06-16T03:34:29.502Z,8.40
2018-06-16T03:36:57.697Z,8.47
2018-06-16T03:39:25.919Z,8.83
2018-06-16T03:41:54.149Z,9.10
2018-06-16T03:44:22.391Z,8.53
2018-06-16T03:46:50.592Z,8.53
2018-06-16T03:49:18.543Z,9.70
2018-06-16T03:51:46.764Z,9.40
2018-06-16T03:54:14.956Z,9.33
2018-06-16T03:56:43.168Z,8.93
2018-06-16T03:59:11.418Z,9.78
2018-06-16T04:01:39.626Z,10.33
2018-06-16T04:04:07.816Z,9.53
2018-06-16T04:06:36.047Z,9.10
2018-06-16T04:09:07.064Z,9.10
2018-06-16T04:11:34.997Z,9.00
2018-06-16T04:14:03.220Z,9.63
2018-06-16T04:16:31.216Z,9.43
2018-06-16T04:18:59.458Z,9.25
2018-06-16T04:21:27.679Z,9.88
2018-06-16T04:23:55.865Z,9.88
2018-06-16T04:26:24.083Z,9.58
2018-06-16T04:28:52.429Z,9.43
2018-06-16T04:31:20.631Z,9.70
2018-06-16T04:33:48.848Z,9.55
2018-06-16T04:36:16.824Z,8.90
2018-06-16T04:38:44.797Z,10.32
2018-06-16T04:41:12.743Z,9.27
2018-06-16T04:43:40.940Z,8.47
2018-06-16T04:46:09.331Z,9.77
2018-06-16T04:48:37.551Z,10.00
2018-06-16T04:51:06.024Z,9.47
2018-06-16T04:53:34.220Z,9.65
2018-06-16T04:56:02.447Z,9.93
2018-06-16T04:58:30.639Z,9.63
2018-06-16T05:00:58.622Z,10.07
2018-06-16T05:03:26.562Z,10.70
2018-06-16T05:05:54.794Z,9.60
2018-06-16T05:08:23.003Z,10.08
2018-06-16T05:10:51.531Z,8.70
2018-06-16T05:13:19.736Z,9.40
2018-06-16T05:15:47.916Z,8.70
2018-06-16T05:18:16.206Z,8.78
2018-06-16T05:20:44.444Z,8.80
2018-06-16T05:23:12.383Z,8.05
2018-06-16T05:25:40.640Z,8.53
2018-06-16T05:28:09.003Z,9.03
2018-06-16T05:30:37.208Z,8.98
2018-06-16T05:33:05.555Z,11.00
2018-06-16T05:35:33.783Z,11.80
2018-06-16T05:38:01.991Z,9.23
2018-06-16T05:40:30.187Z,8.65
2018-06-16T05:42:58.390Z,9.98
2018-06-16T05:45:26.592Z,10.70
2018-06-16T05:47:54.803Z,13.85
2018-06-16T05:50:23.000Z,12.00
2018-06-16T05:52:51.454Z,11.68
2018-06-16T05:55:19.705Z,8.93
2018-06-16T05:57:47.941Z,13.32
2018-06-16T06:00:16.347Z,8.90
2018-06-16T06:02:44.332Z,8.48
2018-06-16T06:05:12.565Z,9.30
2018-06-16T06:07:40.777Z,9.53
2018-06-16T06:10:09.003Z,8.78
2018-06-16T06:12:37.432Z,8.55
2018-06-16T06:15:05.382Z,7.78
2018-06-16T06:17:33.647Z,7.30
2018-06-16T06:20:01.929Z,9.88
2018-06-16T06:22:30.191Z,13.90
2018-06-16T06:24:58.394Z,10.60
2018-06-16T06:27:26.584Z,7.33
2018-06-16T06:29:54.953Z,7.03
2018-06-16T06:32:23.123Z,7.58
2018-06-16T06:34:51.390Z,8.25
2018-06-16T06:37:19.576Z,7.22
2018-06-16T06:39:47.795Z,6.83
2018-06-16T06:42:16.031Z,6.70
2018-06-16T06:44:44.283Z,7.22
2018-06-16T06:47:12.510Z,6.08
2018-06-16T06:49:40.723Z,6.65
2018-06-16T06:52:08.948Z,5.90
2018-06-16T06:54:37.147Z,5.33
2018-06-16T06:57:05.344Z,5.92
2018-06-16T06:59:33.540Z,5.62
2018-06-16T07:02:01.719Z,5.70
2018-06-16T07:04:29.943Z,5.65
2018-06-16T07:06:58.131Z,5.37
2018-06-16T07:09:26.395Z,5.50
2018-06-16T07:11:54.720Z,5.62
2018-06-16T07:14:23.041Z,4.90
2018-06-16T07:16:51.272Z,5.22
2018-06-16T07:19:19.543Z,5.40
2018-06-16T07:21:47.830Z,5.15
2018-06-16T07:24:15.999Z,4.75
2018-06-16T07:26:44.192Z,4.70
2018-06-16T07:29:12.486Z,4.05
2018-06-16T07:31:40.663Z,4.83
2018-06-16T07:34:08.901Z,4.60
2018-06-16T07:36:37.131Z,4.30
2018-06-16T07:39:07.030Z,4.05
2018-06-16T07:41:35.233Z,3.85
2018-06-16T07:44:03.503Z,4.17
2018-06-16T07:46:31.819Z,3.42
2018-06-16T07:49:00.074Z,3.62
2018-06-16T07:53:57.154Z,3.45
2018-06-16T07:56:25.426Z,3.92
2018-06-16T07:58:53.650Z,3.65
2018-06-16T08:01:21.846Z,4.42
2018-06-16T08:03:50.060Z,3.55
2018-06-16T08:06:18.260Z,3.70
2018-06-16T08:08:46.499Z,3.40
2018-06-16T08:11:14.738Z,3.20
2018-06-16T08:13:42.939Z,3.47
2018-06-16T08:16:11.232Z,3.20
2018-06-16T08:18:39.483Z,3.90
2018-06-16T08:21:07.465Z,3.77
2018-06-16T08:23:35.438Z,3.02
2018-06-16T08:26:03.411Z,2.40
2018-06-16T08:28:31.386Z,3.05
2018-06-16T08:30:59.355Z,3.02
2018-06-16T08:33:27.370Z,2.92
2018-06-16T08:35:55.613Z,3.30
2018-06-16T08:38:23.576Z,2.65
2018-06-16T08:40:51.530Z,2.80
2018-06-16T08:43:19.790Z,3.12
2018-06-16T08:45:47.960Z,2.90
2018-06-16T08:48:16.176Z,2.85
2018-06-16T08:50:44.371Z,2.62
2018-06-16T08:53:12.306Z,2.87
2018-06-16T08:55:40.604Z,3.30
2018-06-16T08:58:08.800Z,3.12
2018-06-16T09:00:36.750Z,2.40
2018-06-16T09:03:04.985Z,3.22
2018-06-16T09:05:33.197Z,2.80
2018-06-16T09:08:01.528Z,2.85
2018-06-16T09:10:29.736Z,2.40
2018-06-16T09:12:57.928Z,2.45
2018-06-16T09:15:26.113Z,2.62
2018-06-16T09:17:54.591Z,2.75
2018-06-16T09:20:22.801Z,2.80
2018-06-16T09:22:51.087Z,2.70
2018-06-16T09:25:19.287Z,2.67
2018-06-16T09:27:47.506Z,2.80
2018-06-16T09:30:15.705Z,2.30
2018-06-16T09:32:43.908Z,2.80
2018-06-16T09:35:12.111Z,2.72
2018-06-16T09:37:40.338Z,2.42
2018-06-16T09:40:08.732Z,2.33
2018-06-16T09:42:36.946Z,2.70
2018-06-16T09:45:05.178Z,2.65
2018-06-16T09:47:33.377Z,2.70
2018-06-16T09:50:01.705Z,2.37
2018-06-16T09:52:29.678Z,2.50
2018-06-16T09:54:57.675Z,2.58
2018-06-16T09:58:34.884Z,2.92
2018-06-16T10:01:03.126Z,3.15
2018-06-16T10:03:31.395Z,2.83
2018-06-16T10:05:59.631Z,2.95
2018-06-16T10:08:27.603Z,2.60
2018-06-16T10:10:55.546Z,2.45
2018-06-16T10:13:23.792Z,2.40
2018-06-16T10:15:52.015Z,1.98
2018-06-16T10:18:20.377Z,2.00
2018-06-16T10:20:48.750Z,2.08
2018-06-16T10:23:17.027Z,2.20
2018-06-16T10:25:45.223Z,2.15
2018-06-16T10:28:13.479Z,1.90
2018-06-16T10:30:41.699Z,2.50
2018-06-16T10:33:09.969Z,2.20
2018-06-16T10:35:38.309Z,2.00
2018-06-16T10:38:06.274Z,3.87
2018-06-16T10:40:34.499Z,2.05
2018-06-16T10:43:02.743Z,2.20
2018-06-16T10:45:30.971Z,2.30
2018-06-16T10:47:59.252Z,2.27
2018-06-16T10:50:27.508Z,2.22
2018-06-16T10:52:55.726Z,2.05
2018-06-16T10:55:23.950Z,2.17
2018-06-16T10:57:52.298Z,2.10
2018-06-16T11:00:20.718Z,2.20
2018-06-16T11:02:49.031Z,2.40
2018-06-16T11:05:17.227Z,2.08
2018-06-16T11:07:45.699Z,2.20
2018-06-16T11:10:13.917Z,1.77
2018-06-16T11:12:41.906Z,4.17
2018-06-16T11:15:10.145Z,2.17
2018-06-16T11:17:38.338Z,2.25
2018-06-16T11:20:06.717Z,1.90
2018-06-16T11:22:34.935Z,2.08
2018-06-16T11:25:03.182Z,1.95
2018-06-16T11:27:31.403Z,2.20
2018-06-16T11:29:59.650Z,2.12
2018-06-16T11:32:27.843Z,1.92
2018-06-16T11:34:56.040Z,2.15
2018-06-16T11:37:24.301Z,1.95
2018-06-16T11:39:52.883Z,1.92
2018-06-16T11:42:20.944Z,1.92
2018-06-16T11:44:49.157Z,1.90
2018-06-16T11:47:17.107Z,1.70
2018-06-16T11:49:45.050Z,1.67
2018-06-16T11:52:13.254Z,1.82
2018-06-16T11:54:41.457Z,1.87
2018-06-16T11:57:09.676Z,1.77
2018-06-16T11:59:37.894Z,1.95
2018-06-16T12:02:05.858Z,1.70
2018-06-16T12:04:34.119Z,1.80
2018-06-16T12:07:02.355Z,1.70
2018-06-16T12:09:30.570Z,1.72
2018-06-16T12:11:58.755Z,1.57
2018-06-16T12:14:27.076Z,1.62
2018-06-16T12:16:55.283Z,1.55
2018-06-16T12:19:23.532Z,1.50
2018-06-16T12:21:51.849Z,1.30
2018-06-16T12:24:20.037Z,1.72
2018-06-16T12:26:48.256Z,1.50
2018-06-16T12:29:16.632Z,1.60
2018-06-16T12:31:44.848Z,1.45
2018-06-16T12:34:13.077Z,1.42
2018-06-16T12:36:41.388Z,1.50
2018-06-16T12:39:10.697Z,1.50
2018-06-16T12:41:38.964Z,1.70
2018-06-16T12:44:07.472Z,1.50
2018-06-16T12:46:35.716Z,1.55
2018-06-16T12:49:03.903Z,1.50
2018-06-16T12:51:32.140Z,1.55
2018-06-16T12:54:00.367Z,1.50
2018-06-16T12:56:28.666Z,1.40
2018-06-16T12:58:56.876Z,1.55
2018-06-16T13:01:25.098Z,1.72
2018-06-16T13:03:53.371Z,1.45
2018-06-16T13:06:21.603Z,1.50
2018-06-16T13:08:49.554Z,1.70
2018-06-16T13:11:17.807Z,1.87
2018-06-16T13:13:46.036Z,1.95
2018-06-16T13:16:13.972Z,2.00
2018-06-16T13:18:42.163Z,2.33
2018-06-16T13:21:10.376Z,2.17
2018-06-16T13:23:38.473Z,2.42
2018-06-16T13:26:06.676Z,2.15
2018-06-16T13:28:34.892Z,2.15
2018-06-16T13:31:03.100Z,2.00
2018-06-16T13:33:31.193Z,2.00
2018-06-16T13:35:59.907Z,2.35
2018-06-16T13:38:28.978Z,2.47
2018-06-16T13:40:57.464Z,2.05
2018-06-16T13:43:25.668Z,2.27
2018-06-16T13:45:53.902Z,2.42
2018-06-16T13:48:22.053Z,2.22
2018-06-16T13:50:50.189Z,2.30
2018-06-16T13:53:19.448Z,2.42
2018-06-16T13:55:47.430Z,2.45
2018-06-16T13:58:15.480Z,2.30
2018-06-16T14:00:44.186Z,2.42
2018-06-16T14:03:12.498Z,2.40
2018-06-16T14:05:40.724Z,2.47
2018-06-16T14:08:08.939Z,2.67
2018-06-16T14:10:37.499Z,2.30
2018-06-16T14:13:06.202Z,2.60
2018-06-16T14:15:34.603Z,2.27
2018-06-16T14:18:02.578Z,2.77
2018-06-16T14:20:31.121Z,2.70
2018-06-16T14:22:59.607Z,2.72
2018-06-16T14:25:28.095Z,2.60
2018-06-16T14:27:56.291Z,2.52
2018-06-16T14:30:24.552Z,2.52
2018-06-16T14:32:52.828Z,2.70
2018-06-16T14:35:21.019Z,2.62
2018-06-16T14:37:49.226Z,2.58
2018-06-16T14:40:17.403Z,2.40
2018-06-16T14:42:45.375Z,2.27
2018-06-16T14:45:13.568Z,2.58
2018-06-16T14:47:41.768Z,2.35
2018-06-16T14:50:09.964Z,2.80
2018-06-16T14:52:38.203Z,3.30
2018-06-16T14:55:06.200Z,2.60
2018-06-16T14:57:34.410Z,2.30
2018-06-16T15:00:02.611Z,2.58
2018-06-16T15:02:30.854Z,2.85
2018-06-16T15:04:59.228Z,2.40
2018-06-16T15:07:27.317Z,2.60
2018-06-16T15:09:55.585Z,2.58
2018-06-16T15:12:23.791Z,2.50
2018-06-16T15:14:52.004Z,2.75
2018-06-16T15:17:20.227Z,3.00
2018-06-16T15:19:48.588Z,2.55
2018-06-16T15:22:16.785Z,2.30
2018-06-16T15:24:45.175Z,2.22
2018-06-16T15:27:13.580Z,3.02
2018-06-16T15:29:41.804Z,2.37
2018-06-16T15:32:10.016Z,2.50
2018-06-16T15:34:38.196Z,2.80
2018-06-16T15:37:06.441Z,2.72
2018-06-16T15:39:34.415Z,2.60
2018-06-16T15:42:02.578Z,2.70
2018-06-16T15:44:30.776Z,2.60
2018-06-16T15:46:59.022Z,2.77
2018-06-16T15:49:27.233Z,2.37
2018-06-16T15:51:55.523Z,3.15
2018-06-16T15:54:23.757Z,2.65
2018-06-16T15:56:52.055Z,2.47
2018-06-16T15:59:20.248Z,2.62
2018-06-16T16:01:48.452Z,2.77
2018-06-16T16:04:16.406Z,2.70
2018-06-16T16:06:44.616Z,2.52
2018-06-16T16:09:12.823Z,2.52
2018-06-16T16:11:41.067Z,2.75
2018-06-16T16:14:09.040Z,3.75
2018-06-16T16:16:37.134Z,3.00
2018-06-16T16:19:05.331Z,2.55
2018-06-16T16:21:33.536Z,2.80
2018-06-16T16:24:01.736Z,2.90
2018-06-16T16:26:29.931Z,2.50
2018-06-16T16:28:58.119Z,2.98
2018-06-16T16:31:26.336Z,2.77
2018-06-16T16:33:54.560Z,2.77
2018-06-16T16:36:22.804Z,2.80
2018-06-16T16:38:51.746Z,3.00
2018-06-16T16:41:19.737Z,2.80
2018-06-16T16:43:47.974Z,2.80
2018-06-16T16:46:16.346Z,2.60
2018-06-16T16:48:44.616Z,2.83
2018-06-16T16:51:12.808Z,3.10
2018-06-16T16:53:41.015Z,2.72
2018-06-16T16:56:08.967Z,2.98
2018-06-16T16:58:37.214Z,2.60
2018-06-16T17:01:05.399Z,2.90
2018-06-16T17:03:33.603Z,3.10
2018-06-16T17:06:01.815Z,2.80
2018-06-16T17:08:30.060Z,5.55
2018-06-16T17:10:58.280Z,3.12
2018-06-16T17:13:26.565Z,3.40
2018-06-16T17:15:54.553Z,3.08
2018-06-16T17:18:22.881Z,3.10
2018-06-16T17:20:51.084Z,3.08
2018-06-16T17:23:19.058Z,2.58
2018-06-16T17:25:47.031Z,3.20
2018-06-16T17:28:15.272Z,2.92
2018-06-16T17:30:43.659Z,2.65
2018-06-16T17:33:11.892Z,3.05
2018-06-16T17:35:39.892Z,2.87
2018-06-16T17:38:08.316Z,2.80
2018-06-16T17:40:36.555Z,2.62
2018-06-16T17:43:04.788Z,2.90
2018-06-16T17:45:32.739Z,3.27
2018-06-16T17:48:00.952Z,2.95
2018-06-16T17:50:29.287Z,2.90
2018-06-16T17:52:57.548Z,2.75
2018-06-16T17:55:25.757Z,2.90
2018-06-16T17:57:53.960Z,2.87
2018-06-16T18:00:22.208Z,3.05
2018-06-16T18:02:50.434Z,2.72
2018-06-16T18:05:18.411Z,2.67
2018-06-16T18:07:46.383Z,2.83
2018-06-16T18:10:14.651Z,3.00
2018-06-16T18:12:42.900Z,2.62
2018-06-16T18:15:11.099Z,3.30
2018-06-16T18:17:39.343Z,3.30
2018-06-16T18:20:07.820Z,2.90
2018-06-16T18:22:36.012Z,3.17
2018-06-16T18:25:04.281Z,3.00
2018-06-16T18:27:32.479Z,3.27
2018-06-16T18:30:00.677Z,3.17
2018-06-16T18:32:29.183Z,3.55
2018-06-16T18:34:57.146Z,3.20
2018-06-16T18:37:25.331Z,3.50
2018-06-16T18:39:53.572Z,2.98
2018-06-16T18:42:21.771Z,2.83
2018-06-16T18:44:49.984Z,3.37
2018-06-16T18:47:18.223Z,3.20
2018-06-16T18:49:46.427Z,3.22
2018-06-16T18:52:14.661Z,3.35
2018-06-16T18:54:42.895Z,3.62
2018-06-16T18:57:11.119Z,3.62
2018-06-16T18:59:39.327Z,3.70
2018-06-16T19:02:07.563Z,3.80
2018-06-16T19:04:35.766Z,3.70
2018-06-16T19:07:03.977Z,3.77
2018-06-16T19:09:32.217Z,3.83
2018-06-16T19:12:00.402Z,4.20
2018-06-16T19:14:28.599Z,3.80
2018-06-16T19:16:56.856Z,4.00
2018-06-16T19:19:25.112Z,4.10
2018-06-16T19:21:53.090Z,3.75
2018-06-16T19:24:21.039Z,3.52
2018-06-16T19:26:49.235Z,4.55
2018-06-16T19:29:17.179Z,4.12
2018-06-16T19:31:45.392Z,3.85
2018-06-16T19:34:13.663Z,4.03
2018-06-16T19:36:41.908Z,4.85
2018-06-16T19:39:11.539Z,5.70
2018-06-16T19:41:39.741Z,6.75
2018-06-16T19:44:08.515Z,6.45
2018-06-16T19:46:36.823Z,6.92
2018-06-16T19:49:04.874Z,6.67
2018-06-16T19:51:33.085Z,5.33
2018-06-16T19:54:01.059Z,6.30
2018-06-16T19:56:29.258Z,5.97
2018-06-16T19:58:58.292Z,6.47
2018-06-16T20:01:26.981Z,5.90
2018-06-16T20:03:55.310Z,6.15
2018-06-16T20:06:23.510Z,5.60
2018-06-16T20:08:51.746Z,6.20
2018-06-16T20:11:20.357Z,6.55
2018-06-16T20:13:48.551Z,7.10
2018-06-16T20:16:16.775Z,7.03
2018-06-16T20:18:44.991Z,6.85
2018-06-16T20:21:13.234Z,7.10
2018-06-16T20:23:41.485Z,7.62
2018-06-16T20:26:09.714Z,6.92
2018-06-16T20:28:37.937Z,7.30
2018-06-16T20:31:06.164Z,7.05
2018-06-16T20:33:34.393Z,8.85
2018-06-16T20:36:02.667Z,8.08
2018-06-16T20:38:30.901Z,7.17
2018-06-16T20:40:59.236Z,8.75
2018-06-16T20:43:27.450Z,10.10
2018-06-16T20:45:55.677Z,7.58
2018-06-16T20:48:24.055Z,13.60
2018-06-16T20:50:52.061Z,9.60
2018-06-16T20:53:20.283Z,7.05
2018-06-16T20:55:48.495Z,6.78
2018-06-16T20:58:16.736Z,6.37
2018-06-16T21:00:44.955Z,7.92
2018-06-16T21:03:12.912Z,6.58
2018-06-16T21:05:41.107Z,6.17
2018-06-16T21:08:09.343Z,7.17
2018-06-16T21:10:37.675Z,6.42
2018-06-16T21:13:05.673Z,6.25
2018-06-16T21:15:33.975Z,7.72
2018-06-16T21:18:02.248Z,7.08
2018-06-16T21:20:30.508Z,6.47
2018-06-16T21:22:58.718Z,6.50
2018-06-16T21:25:26.973Z,6.30
2018-06-16T21:27:55.183Z,6.67
2018-06-16T21:30:23.448Z,8.13
2018-06-16T21:32:51.649Z,10.05
2018-06-16T21:35:19.844Z,8.45
2018-06-16T21:37:48.297Z,8.10
2018-06-16T21:40:16.503Z,7.72
2018-06-16T21:42:44.688Z,7.40
2018-06-16T21:45:12.899Z,7.72
2018-06-16T21:47:41.147Z,7.33
2018-06-16T21:50:09.335Z,7.00
2018-06-16T21:52:37.330Z,6.65
2018-06-16T21:55:05.593Z,6.37
2018-06-16T21:57:33.851Z,6.55
2018-06-16T22:00:02.148Z,6.20
2018-06-16T22:02:30.424Z,6.25
2018-06-16T22:04:58.656Z,6.12
2018-06-16T22:07:26.961Z,6.37
2018-06-16T22:09:55.219Z,5.80
2018-06-16T22:12:23.476Z,5.40
2018-06-16T22:14:51.684Z,5.80
2018-06-16T22:17:19.948Z,6.10
2018-06-16T22:19:48.229Z,9.80
2018-06-16T22:22:16.542Z,6.75
2018-06-16T22:24:44.775Z,6.70
2018-06-16T22:27:13.078Z,6.60
2018-06-16T22:29:41.347Z,6.97
2018-06-16T22:32:09.526Z,6.47
2018-06-16T22:34:37.744Z,6.22
2018-06-16T22:37:05.972Z,6.70
2018-06-16T22:39:34.291Z,6.65
2018-06-16T22:42:02.538Z,6.33
2018-06-16T22:44:30.763Z,7.28
2018-06-16T22:46:58.976Z,7.33
2018-06-16T22:49:27.155Z,6.40
2018-06-16T22:51:55.624Z,6.22
2018-06-16T22:54:23.814Z,7.05
2018-06-16T22:56:52.027Z,6.17
2018-06-16T22:59:19.990Z,6.80
2018-06-16T23:01:48.204Z,6.83
2018-06-16T23:04:16.400Z,6.62
2018-06-16T23:06:44.640Z,7.00
2018-06-16T23:09:12.686Z,6.42
2018-06-16T23:11:41.083Z,6.30
2018-06-16T23:14:09.299Z,6.95
2018-06-16T23:16:37.885Z,7.00
2018-06-16T23:19:06.124Z,7.10
2018-06-16T23:21:34.586Z,7.08
2018-06-16T23:24:02.877Z,7.60
2018-06-16T23:26:31.105Z,7.53
2018-06-16T23:28:59.359Z,7.12
2018-06-16T23:31:27.579Z,7.10
2018-06-16T23:33:55.776Z,6.53
2018-06-16T23:36:24.110Z,7.28
2018-06-16T23:38:52.323Z,7.00
2018-06-16T23:41:20.819Z,7.47
2018-06-16T23:43:49.115Z,7.00
2018-06-16T23:46:17.304Z,6.78
2018-06-16T23:48:45.512Z,6.50
2018-06-16T23:51:13.736Z,6.58
2018-06-16T23:53:41.933Z,7.40
2018-06-16T23:56:10.147Z,7.28
2018-06-16T23:58:38.118Z,7.65
